• Join FlightAware (Why Join?)
  • Login
  • US Flag 
02:37AM EDT


 

Airport Tracker/Info


-or-


 

Live Flight TrackerFlight Track Log ✈ SKW5511 ✈ 08-Apr-2013 ✈ KORD - KCOS

Flight Track Log - Related Links

Times and Time Zones

All times are in EDT time to prevent confusion due to time zone crossing. See the SKW5511 flight status page for this flight to view local times or setup timezone preferences in your user account.

Time Position Orientation Groundspeed Altitude Reporting Facility
EDT Latitude Longitude Course Direction KTS MPH feet Rate Location/Type
09:22PM 42.0000 -87.9500 261° West 169 194 2,000  Level Chicago TRACON
09:23PM 42.0500 -87.9833 334° Northwest 221 254 3,600 2,280 Climbing Chicago TRACON
09:24PM 42.1264 -88.0456 329° Northwest 256 295 7,100 2,460 Climbing Chicago Center
09:25PM 41.9167 -88.4380 270° West  Level FlightAware Approximate
09:26PM 41.9041 -88.5741 261° West  Level FlightAware Approximate
09:26PM 42.1436 -88.1289 286° West 274 315 9,700  Level Chicago Center
09:27PM 41.8881 -88.7099 261° West  Level FlightAware Approximate
09:27PM 42.0975 -88.2456 242° Southwest 299 344 12,000  Level Chicago Center
09:28PM 42.0697 -88.3556 251° West 312 359 14,300 2,040 Climbing Chicago Center
09:29PM 42.0417 -88.4683 252° West 320 368 16,300 1,920 Climbing Chicago Center
09:30PM 42.0064 -88.5864 248° West 340 391 18,300 1,920 Climbing Chicago Center
09:31PM 41.9719 -88.7072 249° West 347 399 20,300 1,260 Climbing Chicago Center
09:32PM 41.9303 -88.8575 250° West 363 418 21,000 300 Climbing Chicago Center
09:33PM 41.8986 -88.9900 252° West 374 430 21,000  Level Chicago Center
09:34PM 41.8750 -89.1258 257° West 377 434 21,000 240 Level Chicago Center
09:35PM 41.8514 -89.2522 256° West 355 409 21,500 720 Climbing Chicago Center
09:36PM 41.8253 -89.3783 255° West 352 405 22,500 1,020 Climbing Chicago Center
09:37PM 41.7992 -89.5131 255° West 373 429 23,700 1,380 Climbing Chicago Center
09:38PM 41.7797 -89.6847 261° West 390 449 25,400 1,560 Climbing Chicago Center
09:39PM 41.7617 -89.8211 260° West 382 440 26,900 1,440 Climbing Chicago Center
09:40PM 41.7419 -89.9550 259° West 373 429 28,400 1,440 Climbing Chicago Center
09:41PM 41.7225 -90.0883 259° West 369 425 29,900 1,440 Climbing Chicago Center
09:42PM 41.7031 -90.2167 259° West 359 413 31,400 1,440 Climbing Chicago Center
09:43PM 41.6833 -90.3481 259° West 361 415 32,900 1,260 Climbing Chicago Center
09:44PM 41.6647 -90.4747 259° West 351 404 34,000 480 Climbing Chicago Center
09:45PM 41.6425 -90.6217 259° West 357 411 34,000  Level Chicago Center
09:46PM 41.6219 -90.7597 259° West 376 433 34,000  Level Chicago Center
09:47PM 41.6011 -90.8958 258° West 379 436 34,000  Level Chicago Center
09:48PM 41.5800 -91.0333 258° West 380 437 34,000  Level Chicago Center
09:49PM 41.5583 -91.1711 258° West 380 437 34,000  Level Chicago Center
09:50PM 41.5333 -91.3369 259° West 381 438 34,000  Level Chicago Center
09:51PM 41.5111 -91.4781 258° West 386 444 34,000  Level Chicago Center
09:52PM 41.4886 -91.6161 258° West 386 444 34,000  Level Chicago Center
09:53PM 41.4667 -91.7553 258° West 387 445 34,000  Level Chicago Center
09:54PM 41.4444 -91.8961 258° West 390 449 34,000  Level Chicago Center
09:55PM 41.4219 -92.0356 258° West 389 448 34,000  Level Chicago Center
09:56PM 41.3933 -92.2025 257° West 389 448 34,000  Level Chicago Center
09:57PM 41.3706 -92.3436 258° West 392 451 34,000  Level Chicago Center
09:58PM 41.3458 -92.4892 257° West 388 447 34,000  Level Chicago Center
10:00PM 41.3078 -92.7139 257° West 390 449 34,000  Level Minneapolis Center
10:01PM 41.2797 -92.8808 257° West 390 449 34,000  Level Minneapolis Center
10:02PM 41.2550 -93.0211 257° West 393 452 34,000  Level Minneapolis Center
10:03PM 41.2314 -93.1608 257° West 393 452 34,000  Level Minneapolis Center
10:04PM 41.2072 -93.3008 257° West 393 452 34,000  Level Minneapolis Center
10:05PM 41.1814 -93.4394 256° West 392 451 34,000  Level Minneapolis Center
10:06PM 41.1572 -93.5778 257° West 390 449 34,000  Level Minneapolis Center
10:07PM 41.1339 -93.7158 257° West 388 447 34,000  Level Minneapolis Center
10:08PM 41.1086 -93.8564 257° West 394 453 34,000  Level Minneapolis Center
10:09PM 41.0778 -94.0250 256° West 395 455 34,000  Level Minneapolis Center
10:10PM 41.0511 -94.1667 256° West 398 458 34,000  Level Minneapolis Center
10:11PM 41.0258 -94.3061 257° West 396 456 34,000  Level Minneapolis Center
10:12PM 40.9997 -94.4464 256° West 395 455 34,000  Level Minneapolis Center
10:13PM 40.9739 -94.5831 256° West 393 452 34,000  Level Minneapolis Center
10:14PM 40.9475 -94.7214 256° West 391 450 34,000  Level Minneapolis Center
10:15PM 40.9211 -94.8617 256° West 391 450 34,000  Level Minneapolis Center
10:16PM 40.8939 -95.0025 256° West 392 451 34,000  Level Minneapolis Center
10:17PM 40.8650 -95.1461 255° West 399 459 34,000  Level Minneapolis Center
10:18PM 40.8322 -95.3147 256° West 396 456 34,000  Level Minneapolis Center
10:19PM 40.8047 -95.4575 256° West 400 460 34,000  Level Minneapolis Center
10:20PM 40.7767 -95.6008 256° West 402 463 34,000  Level Minneapolis Center
10:21PM 40.7483 -95.7458 256° West 404 465 34,000  Level Minneapolis Center
10:23PM 40.7186 -95.8925 255° West 410 472 34,000  Level Minneapolis Center
10:24PM 40.6897 -96.0400 256° West 412 474 34,000  Level Minneapolis Center
10:25PM 40.6586 -96.1889 255° West 416 479 34,000  Level Minneapolis Center
10:26PM 40.6292 -96.3364 255° West 417 480 34,000  Level Minneapolis Center
10:27PM 40.5992 -96.4828 255° West 414 476 34,000  Level Minneapolis Center
10:28PM 40.5689 -96.6283 255° West 412 474 34,000  Level Minneapolis Center
10:29PM 40.5383 -96.7725 254° West 410 472 34,000  Level Minneapolis Center
10:30PM 40.5089 -96.9128 255° West 402 463 34,000  Level Minneapolis Center
10:31PM 40.4797 -97.0536 255° West 401 461 34,000  Level Minneapolis Center
10:32PM 40.4506 -97.1919 255° West 396 456 34,000  Level Minneapolis Center
10:33PM 40.4194 -97.3303 254° West 395 455 34,000  Level Minneapolis Center
10:34PM 40.3889 -97.4794 255° West 396 456 34,000  Level Minneapolis Center
10:35PM 40.3583 -97.6178 254° West 395 455 34,000  Level Minneapolis Center
10:36PM 40.3286 -97.7572 254° West 396 456 34,000  Level Minneapolis Center
10:37PM 40.2983 -97.8958 254° West 395 455 34,000  Level Minneapolis Center
10:38PM 40.2667 -98.0350 253° West 396 456 34,000  Level Minneapolis Center
10:39PM 40.2361 -98.1719 254° West 393 452 34,000  Level Minneapolis Center
10:40PM 40.2053 -98.3108 254° West 395 455 34,000  Level Minneapolis Center
10:41PM 40.1736 -98.4492 253° West 395 455 34,000  Level Minneapolis Center
10:42PM 40.1419 -98.5878 253° West 397 457 34,000  Level Minneapolis Center
10:43PM 40.1106 -98.7267 254° West 397 457 34,000  Level Minneapolis Center
10:44PM 40.0600 -98.9481 253° West 396 456 34,000  Level Denver Center
10:45PM 40.0275 -99.0861 253° West 397 457 34,000  Level Denver Center
10:46PM 39.9961 -99.2244 254° West 397 457 34,000  Level Denver Center
10:47PM 39.9631 -99.3642 253° West 402 463 34,000  Level Denver Center
10:48PM 39.9294 -99.5036 253° West 402 463 34,000  Level Denver Center
10:49PM 39.8531 -99.6114 227° Southwest 407 468 34,000  Level Denver Center
10:50PM 39.7578 -99.7375 226° Southwest 406 467 34,000  Level Denver Center
10:52PM 39.6856 -99.8511 230° Southwest 409 471 34,000  Level Denver Center
10:53PM 39.6431 -99.9750 246° West 401 461 34,000  Level Denver Center
10:54PM 39.6050 -100.1311 252° West 405 466 34,000  Level Denver Center
10:55PM 39.5717 -100.2658 252° West 407 468 34,000  Level Denver Center
10:56PM 39.5336 -100.4236 253° West 410 472 34,000  Level Denver Center
10:57PM 39.5000 -100.5539 252° West 404 465 34,000 -360 Level Denver Center
10:58PM 39.4667 -100.6889 252° West 407 468 33,300 -900 Descending Denver Center
10:59PM 39.4286 -100.8403 252° West 398 458 32,200 -1,080 Descending Denver Center
11:00PM 39.4044 -100.9750 257° West 398 458 31,200 -1,080 Descending Denver Center
11:01PM 39.3856 -101.1375 261° West 406 467 30,100 -1,020 Descending Denver Center
11:02PM 39.3681 -101.2753 261° West 405 466 29,100 -1,020 Descending Denver Center
11:03PM 39.3528 -101.4050 261° West 386 444 28,100 -540 Descending Denver Center
11:04PM 39.3339 -101.5556 261° West 381 438 28,000 -60 Descending Denver Center
11:05PM 39.3147 -101.7056 261° West 391 450 28,000  Level Denver Center
11:06PM 39.2981 -101.8375 261° West 391 450 28,000  Level Denver Center
11:07PM 39.2808 -101.9694 260° West 392 451 28,000  Level Denver Center
11:08PM 39.2600 -102.1236 260° West 391 450 28,000  Level Denver Center
11:09PM 39.2272 -102.2492 251° West 387 445 28,000  Level Denver Center
11:10PM 39.1844 -102.3900 249° West 380 437 28,000 -420 Level Denver Center
11:11PM 39.1489 -102.5108 249° West 379 436 27,200 -960 Descending Denver Center
11:12PM 39.1069 -102.6533 249° West 383 441 26,100 -1,020 Descending Denver Center
11:13PM 39.0708 -102.7783 250° West 392 451 25,200 -960 Descending Denver Center
11:14PM 39.0292 -102.9133 248° West 399 459 24,200 -600 Descending Denver Center
11:15PM 38.9872 -103.0489 248° West 403 464 24,000 -120 Descending Denver Center
11:16PM 38.9494 -103.1769 249° West 385 443 24,000 -480 Level Denver Center
11:17PM 38.9111 -103.3053 249° West 380 437 23,100 -1,740 Descending Denver Center
11:18PM 38.8733 -103.4319 249° West 376 433 20,500 -2,700 Descending Denver Center
11:19PM 38.8375 -103.5519 249° West 353 406 17,600 -1,800 Descending Denver Center
11:20PM 38.8261 -103.6833 264° West 344 396 16,900 -840 Descending Denver Center
11:21PM 38.8406 -103.8058 279° West 364 419 15,900 -1,200 Descending Denver Center
11:22PM 38.8569 -103.9394 279° West 348 400 14,500 -960 Descending Denver Center
11:23PM 38.8719 -104.0581 279° West 337 388 14,000 -1,020 Descending Denver Center
11:24PM 38.8531 -104.1742 258° West 322 371 12,500 -1,080 Descending Denver Center
11:25PM 38.8244 -104.2722 249° West 310 357 11,900 -840 Descending Denver Center
11:26PM 38.7989 -104.3675 251° West 301 346 10,900 -1,080 Descending Denver Center
11:27PM 38.7700 -104.4686 250° West 281 323 9,800 -1,080 Descending Denver Center
11:28PM 38.7372 -104.5489 242° Southwest 273 314 8,800 -840 Descending Denver Center
11:29PM 38.6931 -104.6272 234° Southwest 259 298 8,100 -720 Descending Denver Center